sensor_id;sensor_type;location;lat;lon;timestamp;temperature;humidity
26035;DHT22;13809;48.632;11.576;2023-04-19T00:02:01;13.50;40.40
26035;DHT22;13809;48.632;11.576;2023-04-19T00:07:04;13.50;40.70
26035;DHT22;13809;48.632;11.576;2023-04-19T00:12:07;13.50;40.50
26035;DHT22;13809;48.632;11.576;2023-04-19T00:17:12;13.50;40.60
26035;DHT22;13809;48.632;11.576;2023-04-19T00:22:15;13.50;40.80
26035;DHT22;13809;48.632;11.576;2023-04-19T00:27:18;13.50;40.70
26035;DHT22;13809;48.632;11.576;2023-04-19T00:32:23;13.50;40.70
26035;DHT22;13809;48.632;11.576;2023-04-19T00:37:26;13.50;40.90
26035;DHT22;13809;48.632;11.576;2023-04-19T00:42:29;13.40;40.70
26035;DHT22;13809;48.632;11.576;2023-04-19T00:47:34;13.40;40.70
26035;DHT22;13809;48.632;11.576;2023-04-19T00:52:37;13.40;40.90
26035;DHT22;13809;48.632;11.576;2023-04-19T00:57:41;13.40;40.80
26035;DHT22;13809;48.632;11.576;2023-04-19T01:02:46;13.40;40.90
26035;DHT22;13809;48.632;11.576;2023-04-19T01:07:49;13.40;41.10
26035;DHT22;13809;48.632;11.576;2023-04-19T01:12:52;13.40;40.90
26035;DHT22;13809;48.632;11.576;2023-04-19T01:17:57;13.40;40.90
26035;DHT22;13809;48.632;11.576;2023-04-19T01:23:01;13.30;40.90
26035;DHT22;13809;48.632;11.576;2023-04-19T01:28:06;13.30;41.00
26035;DHT22;13809;48.632;11.576;2023-04-19T01:33:09;13.30;41.00
26035;DHT22;13809;48.632;11.576;2023-04-19T01:38:13;13.30;40.90
26035;DHT22;13809;48.632;11.576;2023-04-19T01:43:17;13.20;41.10
26035;DHT22;13809;48.632;11.576;2023-04-19T01:48:20;13.20;41.10
26035;DHT22;13809;48.632;11.576;2023-04-19T01:53:25;13.20;41.00
26035;DHT22;13809;48.632;11.576;2023-04-19T01:58:28;13.20;41.20
26035;DHT22;13809;48.632;11.576;2023-04-19T02:03:31;13.20;41.00
26035;DHT22;13809;48.632;11.576;2023-04-19T02:08:36;13.20;41.20
26035;DHT22;13809;48.632;11.576;2023-04-19T02:13:40;13.10;41.30
26035;DHT22;13809;48.632;11.576;2023-04-19T02:18:43;13.10;41.10
26035;DHT22;13809;48.632;11.576;2023-04-19T02:23:49;13.10;41.10
26035;DHT22;13809;48.632;11.576;2023-04-19T02:28:52;13.10;41.30
26035;DHT22;13809;48.632;11.576;2023-04-19T02:33:56;13.10;41.20
26035;DHT22;13809;48.632;11.576;2023-04-19T02:39:00;13.10;41.40
26035;DHT22;13809;48.632;11.576;2023-04-19T02:44:04;13.10;41.40
26035;DHT22;13809;48.632;11.576;2023-04-19T02:49:07;13.00;41.30
26035;DHT22;13809;48.632;11.576;2023-04-19T02:54:12;13.00;41.30
26035;DHT22;13809;48.632;11.576;2023-04-19T02:59:16;13.00;41.60
26035;DHT22;13809;48.632;11.576;2023-04-19T03:04:19;13.10;41.60
26035;DHT22;13809;48.632;11.576;2023-04-19T03:09:24;13.10;41.40
26035;DHT22;13809;48.632;11.576;2023-04-19T03:14:27;13.00;41.40
26035;DHT22;13809;48.632;11.576;2023-04-19T03:19:30;13.00;41.30
26035;DHT22;13809;48.632;11.576;2023-04-19T03:24:35;12.90;41.30
26035;DHT22;13809;48.632;11.576;2023-04-19T03:29:39;13.00;41.60
26035;DHT22;13809;48.632;11.576;2023-04-19T03:34:42;13.00;41.40
26035;DHT22;13809;48.632;11.576;2023-04-19T03:39:46;13.00;41.50
26035;DHT22;13809;48.632;11.576;2023-04-19T03:44:49;13.00;41.80
26035;DHT22;13809;48.632;11.576;2023-04-19T03:49:53;13.00;41.70
26035;DHT22;13809;48.632;11.576;2023-04-19T03:54:57;13.00;41.70
26035;DHT22;13809;48.632;11.576;2023-04-19T04:00:00;13.00;41.80
26035;DHT22;13809;48.632;11.576;2023-04-19T04:05:08;13.00;41.50
26035;DHT22;13809;48.632;11.576;2023-04-19T04:10:13;13.00;41.40
26035;DHT22;13809;48.632;11.576;2023-04-19T04:15:16;13.00;41.50
26035;DHT22;13809;48.632;11.576;2023-04-19T04:20:19;13.00;41.30
26035;DHT22;13809;48.632;11.576;2023-04-19T04:25:24;13.00;41.40
26035;DHT22;13809;48.632;11.576;2023-04-19T04:30:29;13.00;41.40
26035;DHT22;13809;48.632;11.576;2023-04-19T04:35:32;12.90;41.20
26035;DHT22;13809;48.632;11.576;2023-04-19T04:40:37;12.90;41.10
26035;DHT22;13809;48.632;11.576;2023-04-19T04:45:40;12.90;41.10
26035;DHT22;13809;48.632;11.576;2023-04-19T04:50:45;12.80;41.00
26035;DHT22;13809;48.632;11.576;2023-04-19T04:55:49;12.70;41.00
26035;DHT22;13809;48.632;11.576;2023-04-19T05:00:53;12.70;41.40
26035;DHT22;13809;48.632;11.576;2023-04-19T05:05:56;12.70;41.40
26035;DHT22;13809;48.632;11.576;2023-04-19T05:11:01;12.70;41.20
26035;DHT22;13809;48.632;11.576;2023-04-19T05:16:05;12.70;41.40
26035;DHT22;13809;48.632;11.576;2023-04-19T05:21:08;12.70;41.40
26035;DHT22;13809;48.632;11.576;2023-04-19T05:26:13;12.70;41.40
26035;DHT22;13809;48.632;11.576;2023-04-19T05:31:16;12.70;41.40
26035;DHT22;13809;48.632;11.576;2023-04-19T05:36:21;12.70;41.60
26035;DHT22;13809;48.632;11.576;2023-04-19T05:41:26;12.70;41.50
26035;DHT22;13809;48.632;11.576;2023-04-19T05:46:29;12.70;41.40
26035;DHT22;13809;48.632;11.576;2023-04-19T05:51:32;12.70;41.20
26035;DHT22;13809;48.632;11.576;2023-04-19T05:56:37;12.70;41.30
26035;DHT22;13809;48.632;11.576;2023-04-19T06:01:40;12.70;41.60
26035;DHT22;13809;48.632;11.576;2023-04-19T06:06:44;12.60;41.60
26035;DHT22;13809;48.632;11.576;2023-04-19T06:11:48;12.70;41.80
26035;DHT22;13809;48.632;11.576;2023-04-19T06:16:52;12.70;42.20
26035;DHT22;13809;48.632;11.576;2023-04-19T06:21:56;12.80;41.90
26035;DHT22;13809;48.632;11.576;2023-04-19T06:27:00;12.80;41.90
26035;DHT22;13809;48.632;11.576;2023-04-19T06:32:04;12.90;42.30
26035;DHT22;13809;48.632;11.576;2023-04-19T06:37:07;12.90;42.20
26035;DHT22;13809;48.632;11.576;2023-04-19T06:42:11;13.00;42.40
26035;DHT22;13809;48.632;11.576;2023-04-19T06:47:15;13.10;42.20
26035;DHT22;13809;48.632;11.576;2023-04-19T06:52:18;13.10;42.00
26035;DHT22;13809;48.632;11.576;2023-04-19T06:57:22;13.10;42.00
26035;DHT22;13809;48.632;11.576;2023-04-19T07:02:28;13.20;42.20
26035;DHT22;13809;48.632;11.576;2023-04-19T07:07:32;13.20;42.00
26035;DHT22;13809;48.632;11.576;2023-04-19T07:12:36;13.30;42.00
26035;DHT22;13809;48.632;11.576;2023-04-19T07:17:39;13.40;42.00
26035;DHT22;13809;48.632;11.576;2023-04-19T07:22:43;13.40;42.00
26035;DHT22;13809;48.632;11.576;2023-04-19T07:27:47;13.50;42.10
26035;DHT22;13809;48.632;11.576;2023-04-19T07:32:51;13.50;41.90
26035;DHT22;13809;48.632;11.576;2023-04-19T07:37:54;13.60;41.90
26035;DHT22;13809;48.632;11.576;2023-04-19T07:42:59;13.60;41.80
26035;DHT22;13809;48.632;11.576;2023-04-19T07:48:02;13.60;41.50
26035;DHT22;13809;48.632;11.576;2023-04-19T07:53:05;13.70;41.70
26035;DHT22;13809;48.632;11.576;2023-04-19T07:58:10;13.70;41.70
26035;DHT22;13809;48.632;11.576;2023-04-19T08:03:13;13.80;41.70
26035;DHT22;13809;48.632;11.576;2023-04-19T08:08:17;13.90;41.80
26035;DHT22;13809;48.632;11.576;2023-04-19T08:13:21;13.90;42.00
26035;DHT22;13809;48.632;11.576;2023-04-19T08:18:25;14.00;41.90
26035;DHT22;13809;48.632;11.576;2023-04-19T08:23:28;14.10;41.90
26035;DHT22;13809;48.632;11.576;2023-04-19T08:28:43;14.20;41.90
26035;DHT22;13809;48.632;11.576;2023-04-19T08:33:46;14.20;41.70
26035;DHT22;13809;48.632;11.576;2023-04-19T08:38:49;14.20;41.60
26035;DHT22;13809;48.632;11.576;2023-04-19T08:44:10;14.30;41.50
26035;DHT22;13809;48.632;11.576;2023-04-19T08:49:14;14.30;41.70
26035;DHT22;13809;48.632;11.576;2023-04-19T08:54:21;14.30;42.50
26035;DHT22;13809;48.632;11.576;2023-04-19T08:59:25;14.40;41.90
26035;DHT22;13809;48.632;11.576;2023-04-19T09:04:29;14.40;41.90
26035;DHT22;13809;48.632;11.576;2023-04-19T09:09:38;14.50;41.80
26035;DHT22;13809;48.632;11.576;2023-04-19T09:15:06;14.60;41.90
26035;DHT22;13809;48.632;11.576;2023-04-19T09:20:10;14.60;41.80
26035;DHT22;13809;48.632;11.576;2023-04-19T09:25:23;14.60;41.60
26035;DHT22;13809;48.632;11.576;2023-04-19T09:30:48;14.70;41.40
26035;DHT22;13809;48.632;11.576;2023-04-19T09:35:54;14.70;41.60
26035;DHT22;13809;48.632;11.576;2023-04-19T09:41:06;14.80;41.70
26035;DHT22;13809;48.632;11.576;2023-04-19T09:46:28;14.80;41.60
26035;DHT22;13809;48.632;11.576;2023-04-19T09:51:39;14.80;41.90
26035;DHT22;13809;48.632;11.576;2023-04-19T09:56:43;14.80;41.40
26035;DHT22;13809;48.632;11.576;2023-04-19T10:01:53;14.70;41.30
26035;DHT22;13809;48.632;11.576;2023-04-19T10:06:57;14.60;42.10
26035;DHT22;13809;48.632;11.576;2023-04-19T10:12:22;14.60;41.60
26035;DHT22;13809;48.632;11.576;2023-04-19T10:17:30;14.50;41.60
26035;DHT22;13809;48.632;11.576;2023-04-19T10:22:34;14.50;42.00
26035;DHT22;13809;48.632;11.576;2023-04-19T10:27:40;14.40;41.90
26035;DHT22;13809;48.632;11.576;2023-04-19T10:32:53;14.30;41.80
26035;DHT22;13809;48.632;11.576;2023-04-19T10:38:08;14.30;42.10
26035;DHT22;13809;48.632;11.576;2023-04-19T10:43:16;14.20;42.50
26035;DHT22;13809;48.632;11.576;2023-04-19T10:48:48;14.20;42.80
26035;DHT22;13809;48.632;11.576;2023-04-19T10:53:56;14.10;43.00
26035;DHT22;13809;48.632;11.576;2023-04-19T10:59:17;14.00;42.70
26035;DHT22;13809;48.632;11.576;2023-04-19T11:05:00;14.00;43.50
26035;DHT22;13809;48.632;11.576;2023-04-19T11:10:06;13.90;43.40
26035;DHT22;13809;48.632;11.576;2023-04-19T11:15:09;14.00;43.10
26035;DHT22;13809;48.632;11.576;2023-04-19T11:20:14;13.90;43.00
26035;DHT22;13809;48.632;11.576;2023-04-19T11:25:18;13.90;43.40
26035;DHT22;13809;48.632;11.576;2023-04-19T11:30:27;13.90;43.40
26035;DHT22;13809;48.632;11.576;2023-04-19T11:35:32;13.90;43.70
26035;DHT22;13809;48.632;11.576;2023-04-19T11:40:36;13.90;43.40
26035;DHT22;13809;48.632;11.576;2023-04-19T11:45:40;13.90;43.00
26035;DHT22;13809;48.632;11.576;2023-04-19T11:50:45;13.80;43.10
26035;DHT22;13809;48.632;11.576;2023-04-19T11:55:52;13.80;43.30
26035;DHT22;13809;48.632;11.576;2023-04-19T12:00:56;13.80;43.30
26035;DHT22;13809;48.632;11.576;2023-04-19T12:06:03;13.80;43.30
26035;DHT22;13809;48.632;11.576;2023-04-19T12:11:10;13.80;43.30
26035;DHT22;13809;48.632;11.576;2023-04-19T12:16:13;13.70;43.20
26035;DHT22;13809;48.632;11.576;2023-04-19T12:21:25;13.70;43.20
26035;DHT22;13809;48.632;11.576;2023-04-19T12:26:28;13.70;43.20
26035;DHT22;13809;48.632;11.576;2023-04-19T12:31:32;13.60;43.10
26035;DHT22;13809;48.632;11.576;2023-04-19T12:36:36;13.50;42.60
26035;DHT22;13809;48.632;11.576;2023-04-19T12:41:39;13.40;42.90
26035;DHT22;13809;48.632;11.576;2023-04-19T12:46:43;13.20;42.70
26035;DHT22;13809;48.632;11.576;2023-04-19T12:51:47;13.10;42.70
26035;DHT22;13809;48.632;11.576;2023-04-19T12:56:50;13.00;42.60
26035;DHT22;13809;48.632;11.576;2023-04-19T13:01:53;13.00;42.60
26035;DHT22;13809;48.632;11.576;2023-04-19T13:06:58;12.80;42.40
26035;DHT22;13809;48.632;11.576;2023-04-19T13:12:03;12.70;42.30
26035;DHT22;13809;48.632;11.576;2023-04-19T13:17:06;12.60;42.30
26035;DHT22;13809;48.632;11.576;2023-04-19T13:22:11;12.60;42.60
26035;DHT22;13809;48.632;11.576;2023-04-19T13:27:14;12.50;42.70
26035;DHT22;13809;48.632;11.576;2023-04-19T13:32:18;12.50;42.70
26035;DHT22;13809;48.632;11.576;2023-04-19T13:37:22;12.50;42.70
26035;DHT22;13809;48.632;11.576;2023-04-19T13:42:26;12.50;43.10
26035;DHT22;13809;48.632;11.576;2023-04-19T13:47:29;12.40;43.00
26035;DHT22;13809;48.632;11.576;2023-04-19T13:52:34;12.40;43.00
26035;DHT22;13809;48.632;11.576;2023-04-19T13:57:37;12.50;43.30
26035;DHT22;13809;48.632;11.576;2023-04-19T14:02:40;12.50;43.00
26035;DHT22;13809;48.632;11.576;2023-04-19T14:07:45;12.50;42.80
26035;DHT22;13809;48.632;11.576;2023-04-19T14:12:51;12.60;42.60
26035;DHT22;13809;48.632;11.576;2023-04-19T14:17:54;12.60;42.60
26035;DHT22;13809;48.632;11.576;2023-04-19T14:22:59;12.50;42.50
26035;DHT22;13809;48.632;11.576;2023-04-19T14:28:02;12.60;42.80
26035;DHT22;13809;48.632;11.576;2023-04-19T14:33:05;12.60;42.80
26035;DHT22;13809;48.632;11.576;2023-04-19T14:38:10;12.70;42.40
26035;DHT22;13809;48.632;11.576;2023-04-19T14:43:14;12.70;42.30
26035;DHT22;13809;48.632;11.576;2023-04-19T14:48:17;12.70;42.30
26035;DHT22;13809;48.632;11.576;2023-04-19T14:53:24;12.70;42.30
26035;DHT22;13809;48.632;11.576;2023-04-19T14:58:27;12.70;42.30
26035;DHT22;13809;48.632;11.576;2023-04-19T15:03:30;12.80;42.40
26035;DHT22;13809;48.632;11.576;2023-04-19T15:08:35;12.80;42.40
26035;DHT22;13809;48.632;11.576;2023-04-19T15:13:39;12.80;42.40
26035;DHT22;13809;48.632;11.576;2023-04-19T15:18:42;12.90;42.50
26035;DHT22;13809;48.632;11.576;2023-04-19T15:23:47;12.80;42.40
26035;DHT22;13809;48.632;11.576;2023-04-19T15:28:50;12.70;42.30
26035;DHT22;13809;48.632;11.576;2023-04-19T15:33:54;12.70;42.30
26035;DHT22;13809;48.632;11.576;2023-04-19T15:38:59;12.60;42.20
26035;DHT22;13809;48.632;11.576;2023-04-19T15:44:02;12.60;42.20
26035;DHT22;13809;48.632;11.576;2023-04-19T15:49:05;12.60;43.00
26035;DHT22;13809;48.632;11.576;2023-04-19T15:54:12;12.60;43.10
26035;DHT22;13809;48.632;11.576;2023-04-19T15:59:15;12.70;43.10
26035;DHT22;13809;48.632;11.576;2023-04-19T16:04:18;12.80;42.40
26035;DHT22;13809;48.632;11.576;2023-04-19T16:09:23;12.80;42.40
26035;DHT22;13809;48.632;11.576;2023-04-19T16:14:27;12.70;42.30
26035;DHT22;13809;48.632;11.576;2023-04-19T16:19:30;12.70;42.30
26035;DHT22;13809;48.632;11.576;2023-04-19T16:24:34;12.60;42.20
26035;DHT22;13809;48.632;11.576;2023-04-19T16:29:37;12.50;42.10
26035;DHT22;13809;48.632;11.576;2023-04-19T16:34:41;12.50;42.10
26035;DHT22;13809;48.632;11.576;2023-04-19T16:39:45;12.40;42.00
26035;DHT22;13809;48.632;11.576;2023-04-19T16:44:48;12.40;42.00
26035;DHT22;13809;48.632;11.576;2023-04-19T16:49:51;12.40;42.00
26035;DHT22;13809;48.632;11.576;2023-04-19T16:54:58;12.30;42.00
26035;DHT22;13809;48.632;11.576;2023-04-19T17:00:05;12.30;42.00
26035;DHT22;13809;48.632;11.576;2023-04-19T17:05:09;12.30;42.00
26035;DHT22;13809;48.632;11.576;2023-04-19T17:10:14;12.30;42.00
26035;DHT22;13809;48.632;11.576;2023-04-19T17:15:18;12.20;41.90
26035;DHT22;13809;48.632;11.576;2023-04-19T17:20:21;12.30;42.00
26035;DHT22;13809;48.632;11.576;2023-04-19T17:25:25;12.40;42.30
26035;DHT22;13809;48.632;11.576;2023-04-19T17:30:29;12.40;42.00
26035;DHT22;13809;48.632;11.576;2023-04-19T17:35:34;12.40;42.00
26035;DHT22;13809;48.632;11.576;2023-04-19T17:40:39;12.50;42.10
26035;DHT22;13809;48.632;11.576;2023-04-19T17:45:42;12.40;42.00
26035;DHT22;13809;48.632;11.576;2023-04-19T17:50:45;12.50;42.20
26035;DHT22;13809;48.632;11.576;2023-04-19T17:55:51;12.50;42.10
26035;DHT22;13809;48.632;11.576;2023-04-19T18:00:56;12.50;42.10
26035;DHT22;13809;48.632;11.576;2023-04-19T18:06:00;12.60;42.20
26035;DHT22;13809;48.632;11.576;2023-04-19T18:11:04;12.60;42.20
26035;DHT22;13809;48.632;11.576;2023-04-19T18:16:08;12.60;42.20
26035;DHT22;13809;48.632;11.576;2023-04-19T18:21:12;12.50;42.10
26035;DHT22;13809;48.632;11.576;2023-04-19T18:26:17;12.40;42.00
26035;DHT22;13809;48.632;11.576;2023-04-19T18:31:20;12.40;42.20
26035;DHT22;13809;48.632;11.576;2023-04-19T18:36:23;12.40;42.00
26035;DHT22;13809;48.632;11.576;2023-04-19T18:41:30;12.40;42.10
26035;DHT22;13809;48.632;11.576;2023-04-19T18:46:33;12.50;42.10
26035;DHT22;13809;48.632;11.576;2023-04-19T18:51:39;12.40;42.10
26035;DHT22;13809;48.632;11.576;2023-04-19T18:56:44;12.40;41.70
26035;DHT22;13809;48.632;11.576;2023-04-19T19:01:50;12.30;41.40
26035;DHT22;13809;48.632;11.576;2023-04-19T19:06:58;12.10;41.70
26035;DHT22;13809;48.632;11.576;2023-04-19T19:12:21;12.10;41.80
26035;DHT22;13809;48.632;11.576;2023-04-19T19:17:26;12.00;41.70
26035;DHT22;13809;48.632;11.576;2023-04-19T19:22:29;11.90;41.60
26035;DHT22;13809;48.632;11.576;2023-04-19T19:27:37;11.90;41.70
26035;DHT22;13809;48.632;11.576;2023-04-19T19:32:40;11.90;41.60
26035;DHT22;13809;48.632;11.576;2023-04-19T19:37:44;11.80;41.50
26035;DHT22;13809;48.632;11.576;2023-04-19T19:42:48;11.80;41.50
26035;DHT22;13809;48.632;11.576;2023-04-19T19:47:51;11.70;41.70
26035;DHT22;13809;48.632;11.576;2023-04-19T19:52:55;11.70;42.00
26035;DHT22;13809;48.632;11.576;2023-04-19T19:58:00;11.70;42.10
26035;DHT22;13809;48.632;11.576;2023-04-19T20:03:23;11.70;42.30
26035;DHT22;13809;48.632;11.576;2023-04-19T20:08:38;11.80;42.10
26035;DHT22;13809;48.632;11.576;2023-04-19T20:13:46;11.80;41.90
26035;DHT22;13809;48.632;11.576;2023-04-19T20:18:50;11.70;41.40
26035;DHT22;13809;48.632;11.576;2023-04-19T20:23:53;11.60;41.30
26035;DHT22;13809;48.632;11.576;2023-04-19T20:28:58;11.50;41.30
26035;DHT22;13809;48.632;11.576;2023-04-19T20:34:04;11.50;42.00
26035;DHT22;13809;48.632;11.576;2023-04-19T20:39:07;11.40;42.30
26035;DHT22;13809;48.632;11.576;2023-04-19T20:44:15;11.40;42.30
26035;DHT22;13809;48.632;11.576;2023-04-19T20:49:19;11.40;42.20
26035;DHT22;13809;48.632;11.576;2023-04-19T20:54:22;11.40;42.10
26035;DHT22;13809;48.632;11.576;2023-04-19T20:59:27;11.30;41.90
26035;DHT22;13809;48.632;11.576;2023-04-19T21:04:30;11.20;41.70
26035;DHT22;13809;48.632;11.576;2023-04-19T21:09:34;11.10;41.50
26035;DHT22;13809;48.632;11.576;2023-04-19T21:14:39;11.00;41.60
26035;DHT22;13809;48.632;11.576;2023-04-19T21:19:42;10.90;41.80
26035;DHT22;13809;48.632;11.576;2023-04-19T21:24:45;10.80;41.90
26035;DHT22;13809;48.632;11.576;2023-04-19T21:29:50;10.70;41.90
26035;DHT22;13809;48.632;11.576;2023-04-19T21:34:53;10.60;42.20
26035;DHT22;13809;48.632;11.576;2023-04-19T21:39:57;10.60;42.20
26035;DHT22;13809;48.632;11.576;2023-04-19T21:45:01;10.60;42.20
26035;DHT22;13809;48.632;11.576;2023-04-19T21:50:05;10.50;42.00
26035;DHT22;13809;48.632;11.576;2023-04-19T21:55:09;10.50;42.10
26035;DHT22;13809;48.632;11.576;2023-04-19T22:00:14;10.50;42.40
26035;DHT22;13809;48.632;11.576;2023-04-19T22:05:18;10.50;42.60
26035;DHT22;13809;48.632;11.576;2023-04-19T22:10:21;10.60;42.40
26035;DHT22;13809;48.632;11.576;2023-04-19T22:15:26;10.60;42.10
26035;DHT22;13809;48.632;11.576;2023-04-19T22:20:29;10.60;42.30
26035;DHT22;13809;48.632;11.576;2023-04-19T22:25:32;10.60;42.20
26035;DHT22;13809;48.632;11.576;2023-04-19T22:30:37;10.70;42.30
26035;DHT22;13809;48.632;11.576;2023-04-19T22:35:40;10.70;42.30
26035;DHT22;13809;48.632;11.576;2023-04-19T22:40:44;10.70;42.00
26035;DHT22;13809;48.632;11.576;2023-04-19T22:45:48;10.60;41.60
26035;DHT22;13809;48.632;11.576;2023-04-19T22:50:52;10.50;41.10
26035;DHT22;13809;48.632;11.576;2023-04-19T22:55:55;10.40;41.50
26035;DHT22;13809;48.632;11.576;2023-04-19T23:00:59;10.30;41.50
26035;DHT22;13809;48.632;11.576;2023-04-19T23:06:03;10.30;41.50
26035;DHT22;13809;48.632;11.576;2023-04-19T23:11:06;10.20;41.40
26035;DHT22;13809;48.632;11.576;2023-04-19T23:16:12;10.10;41.60
26035;DHT22;13809;48.632;11.576;2023-04-19T23:21:15;10.10;41.80
26035;DHT22;13809;48.632;11.576;2023-04-19T23:26:18;10.00;41.60
26035;DHT22;13809;48.632;11.576;2023-04-19T23:31:23;10.00;41.50
26035;DHT22;13809;48.632;11.576;2023-04-19T23:36:27;10.00;41.80
26035;DHT22;13809;48.632;11.576;2023-04-19T23:41:30;10.00;41.50
26035;DHT22;13809;48.632;11.576;2023-04-19T23:46:35;9.90;42.40
26035;DHT22;13809;48.632;11.576;2023-04-19T23:51:39;9.90;42.60
26035;DHT22;13809;48.632;11.576;2023-04-19T23:56:42;9.90;42.30
